Time;durP1;ratioP1;P1;durP2;ratioP2;P2;SDS_P1;SDS_P2;PMS_P1;PMS_P2;Temp;Humidity;BMP_temperature;BMP_pressure;BME280_temperature;BME280_humidity;BME280_pressure;Samples;Min_cycle;Max_cycle;Signal;HPM_P1;HPM_P2
2021/12/16 00:08:38;;;;;;;;;26.00;25.25;;;;;11.96;64.20;103124.38;5079786;28;45694;-64
2021/12/16 00:11:19;;;;;;;;;29.25;23.50;;;;;11.93;64.52;103127.03;5079969;28;45161;-64
2021/12/16 00:19:59;;;;;;;;;26.25;24.00;;;;;11.71;64.49;103096.69;5067803;27;45580;-64
2021/12/16 00:31:05;;;;;;;;;27.50;24.25;;;;;11.92;64.87;103128.81;5066927;27;45157;-64
2021/12/16 00:33:37;;;;;;;;;27.50;24.00;;;;;11.93;64.45;103132.38;5079355;28;45442;-64
2021/12/16 00:36:05;;;;;;;;;30.75;24.50;;;;;11.93;64.20;103129.72;5079357;28;45323;-64
2021/12/16 00:38:31;;;;;;;;;26.00;25.50;;;;;11.94;64.31;103129.72;5079642;28;45308;-64
2021/12/16 00:40:59;;;;;;;;;27.25;23.75;;;;;11.95;64.54;103131.50;5079233;28;45648;-64
2021/12/16 00:43:36;;;;;;;;;31.25;25.25;;;;;11.95;64.54;103130.63;5079442;28;45473;-64
2021/12/16 00:49:05;;;;;;;;;28.75;24.50;;;;;11.95;64.36;103122.59;5079199;27;46032;-64
2021/12/16 00:54:12;;;;;;;;;30.75;26.75;;;;;11.96;64.36;103119.94;5080101;27;45389;-64
2021/12/16 00:56:49;;;;;;;;;31.75;30.00;;;;;11.95;64.21;103119.91;5082769;28;45627;-64
2021/12/16 00:59:16;;;;;;;;;36.25;32.25;;;;;11.94;64.52;103123.47;5078798;28;45275;-64
2021/12/16 01:47:49;;;;;;;;;31.25;29.50;;;;;11.90;64.44;103113.66;5081901;28;45235;-64
2021/12/16 01:50:41;;;;;;;;;26.50;25.50;;;;;11.83;64.54;103110.06;5081694;28;45381;-64
2021/12/16 01:53:20;;;;;;;;;30.25;26.50;;;;;11.92;64.67;103127.94;5081406;27;45351;-64
2021/12/16 01:58:50;;;;;;;;;30.00;27.25;;;;;11.96;64.61;103135.97;5065360;28;45411;-64
2021/12/16 02:03:53;;;;;;;;;31.75;30.00;;;;;11.96;64.50;103135.06;5081465;28;46095;-64
2021/12/16 02:09:19;;;;;;;;;26.00;23.00;;;;;11.99;64.73;103135.06;5081581;28;45356;-64
2021/12/16 02:11:57;;;;;;;;;24.00;22.75;;;;;12.01;64.51;103144.00;5081299;27;45340;-64
2021/12/16 02:33:37;;;;;;;;;26.75;23.75;;;;;12.01;64.74;103130.59;5081136;28;45328;-64
2021/12/16 02:36:25;;;;;;;;;30.25;30.25;;;;;12.01;64.70;103134.19;5081085;28;47053;-64
2021/12/16 02:38:56;;;;;;;;;28.00;28.00;;;;;12.02;64.54;103130.59;5081301;28;45356;-64
2021/12/16 02:41:23;;;;;;;;;30.50;29.75;;;;;12.02;64.41;103135.09;5081052;28;45398;-64
2021/12/16 02:49:18;;;;;;;;;24.25;23.00;;;;;11.99;64.66;103119.91;5080707;27;45408;-64
2021/12/16 02:51:44;;;;;;;;;31.25;28.00;;;;;12.05;64.10;103127.94;5080483;28;45141;-64
2021/12/16 02:54:10;;;;;;;;;29.75;27.50;;;;;12.03;64.31;103126.16;5080811;28;45334;-64
2021/12/16 02:56:36;;;;;;;;;36.25;31.75;;;;;12.07;64.06;103144.00;5080352;28;46196;-64
2021/12/16 02:59:03;;;;;;;;;33.25;33.00;;;;;12.04;64.00;103135.97;5080324;28;45235;-64
2021/12/16 03:01:45;;;;;;;;;33.25;29.75;;;;;12.04;64.09;103133.28;5081039;28;45414;-64
2021/12/16 03:04:14;;;;;;;;;32.75;31.25;;;;;12.05;64.51;103133.28;5080583;27;45168;-64
2021/12/16 03:06:47;;;;;;;;;38.00;33.00;;;;;12.05;64.29;103135.97;5080596;27;46252;-64
2021/12/16 03:09:18;;;;;;;;;34.00;30.50;;;;;12.05;63.93;103141.31;5080543;28;45595;-64
2021/12/16 03:12:09;;;;;;;;;33.00;29.50;;;;;12.05;64.15;103130.59;5080705;28;45263;-64
2021/12/16 03:14:38;;;;;;;;;35.75;29.25;;;;;12.03;64.09;103126.16;5079986;28;45289;-64
2021/12/16 03:22:03;;;;;;;;;30.50;25.50;;;;;12.06;64.31;103134.16;5068710;28;45316;-64
2021/12/16 03:25:07;;;;;;;;;33.00;27.75;;;;;12.05;64.11;103135.97;5076335;28;45529;-64
2021/12/16 03:35:39;;;;;;;;;33.25;32.00;;;;;12.02;63.99;103127.06;5080225;28;45322;-64
2021/12/16 03:38:08;;;;;;;;;33.75;31.00;;;;;12.04;64.20;103128.84;5079986;28;47019;-64
2021/12/16 03:40:35;;;;;;;;;34.50;32.75;;;;;12.07;64.35;103135.09;5080113;28;45464;-64
2021/12/16 03:43:10;;;;;;;;;38.50;32.50;;;;;12.08;64.33;103129.72;5080031;28;45391;-64
2021/12/16 03:48:28;;;;;;;;;34.25;32.00;;;;;12.04;64.29;103126.16;5068594;27;45330;-64
2021/12/16 03:50:54;;;;;;;;;31.00;27.75;;;;;12.10;64.54;103138.66;5079553;28;45721;-64
2021/12/16 03:53:20;;;;;;;;;36.50;29.25;;;;;12.12;64.39;103135.97;5080138;28;45462;-64
2021/12/16 03:55:47;;;;;;;;;29.50;27.50;;;;;12.13;64.41;103135.97;5079775;27;45394;-64
2021/12/16 03:58:14;;;;;;;;;33.00;30.00;;;;;12.17;64.07;103135.06;5079725;28;45476;-64
2021/12/16 04:00:47;;;;;;;;;26.75;25.75;;;;;12.17;64.05;103136.84;5079843;28;45314;-64
2021/12/16 04:03:12;;;;;;;;;29.00;25.75;;;;;12.21;64.15;103142.22;5080315;28;45376;-64
2021/12/16 04:05:39;;;;;;;;;26.75;25.00;;;;;12.19;64.42;103130.59;5079826;28;45508;-64
2021/12/16 04:08:05;;;;;;;;;28.50;28.00;;;;;12.23;64.51;103137.75;5080007;28;45355;-64
2021/12/16 04:10:51;;;;;;;;;35.00;31.00;;;;;12.21;64.14;103136.88;5079616;28;45562;-64
2021/12/16 04:13:18;;;;;;;;;28.00;25.50;;;;;12.22;64.51;103140.41;5079649;28;45300;-64
2021/12/16 04:15:44;;;;;;;;;30.00;25.50;;;;;12.19;64.28;103135.06;5079826;28;45577;-64
2021/12/16 04:18:10;;;;;;;;;29.50;26.00;;;;;12.26;64.42;103149.34;5079752;28;46040;-64
2021/12/16 04:20:35;;;;;;;;;33.25;29.50;;;;;12.28;64.16;103147.53;5079196;28;45422;-64
2021/12/16 04:23:01;;;;;;;;;26.00;21.75;;;;;12.27;63.99;103140.44;5079791;28;45454;-64
2021/12/16 04:25:35;;;;;;;;;29.75;26.50;;;;;12.30;64.07;103135.94;5073507;28;45329;-64
2021/12/16 04:28:05;;;;;;;;;27.50;24.25;;;;;12.32;64.32;103139.50;5079019;27;46292;-64
2021/12/16 04:30:32;;;;;;;;;25.75;24.00;;;;;12.31;64.04;103142.19;5082360;28;45518;-64
2021/12/16 04:32:58;;;;;;;;;27.75;24.00;;;;;12.30;64.01;103151.13;5083146;27;45156;-64
2021/12/16 04:35:23;;;;;;;;;27.25;26.50;;;;;12.30;64.42;103149.34;5083309;28;45489;-64
2021/12/16 04:37:50;;;;;;;;;25.00;25.00;;;;;12.31;64.25;103155.59;5082731;27;46124;-64
2021/12/16 04:40:17;;;;;;;;;30.75;25.75;;;;;12.31;64.50;103161.84;5082618;28;45685;-64
2021/12/16 04:42:45;;;;;;;;;26.00;23.25;;;;;12.31;64.35;103164.53;5082772;27;45382;-64
2021/12/16 04:45:15;;;;;;;;;26.50;25.00;;;;;12.32;64.49;103160.94;5082785;28;45448;-64
2021/12/16 04:47:41;;;;;;;;;26.25;26.25;;;;;12.34;64.48;103158.25;5082371;27;45439;-64
2021/12/16 04:50:09;;;;;;;;;29.00;24.00;;;;;12.35;64.37;103160.94;5075757;27;45625;-64
2021/12/16 04:52:35;;;;;;;;;24.75;23.50;;;;;12.33;64.00;103160.06;5081865;27;45344;-64
2021/12/16 04:55:00;;;;;;;;;23.25;21.50;;;;;12.37;64.08;103160.94;5075478;28;45221;-64
2021/12/16 04:57:26;;;;;;;;;27.25;26.50;;;;;12.36;64.08;103161.81;5082032;28;46265;-64
2021/12/16 04:59:51;;;;;;;;;26.50;23.50;;;;;12.37;64.25;103158.25;5082633;28;45165;-64
2021/12/16 05:02:21;;;;;;;;;35.00;26.00;;;;;12.39;64.28;103164.50;5082829;28;45583;-64
2021/12/16 05:04:47;;;;;;;;;27.00;24.00;;;;;12.40;64.38;103168.97;5082678;28;45518;-64
2021/12/16 05:07:13;;;;;;;;;29.00;26.25;;;;;12.41;64.36;103173.41;5081569;28;45513;-64
2021/12/16 05:12:28;;;;;;;;;27.75;26.50;;;;;12.42;64.37;103168.06;5080819;28;45445;-64
2021/12/16 05:14:54;;;;;;;;;23.25;22.75;;;;;12.44;64.11;103170.75;5074990;28;45489;-64
2021/12/16 05:17:31;;;;;;;;;27.25;22.50;;;;;12.46;64.28;103165.38;5074937;27;46103;-64
2021/12/16 05:20:01;;;;;;;;;21.25;20.25;;;;;12.42;64.16;103156.47;5075861;27;45455;-64
2021/12/16 05:25:21;;;;;;;;;30.25;26.50;;;;;12.46;64.25;103157.34;5076135;28;45221;-64
2021/12/16 05:27:46;;;;;;;;;27.50;24.75;;;;;12.46;64.26;103162.72;5081868;28;46039;-64
2021/12/16 05:30:13;;;;;;;;;27.00;25.25;;;;;12.47;64.14;103164.50;5081197;28;45320;-63
2021/12/16 05:32:40;;;;;;;;;26.25;25.50;;;;;12.46;64.17;103168.94;5074860;27;45339;-64
2021/12/16 05:35:06;;;;;;;;;26.75;24.50;;;;;12.49;64.05;103168.06;5081972;28;45417;-63
2021/12/16 05:37:32;;;;;;;;;25.25;24.75;;;;;12.50;64.11;103176.09;5082089;28;47038;-64
2021/12/16 05:39:57;;;;;;;;;22.00;19.00;;;;;12.49;63.60;103173.44;5081457;27;45404;-64
2021/12/16 05:42:22;;;;;;;;;21.25;19.75;;;;;12.46;63.72;103173.41;5081588;27;45352;-64
2021/12/16 05:44:48;;;;;;;;;18.00;17.00;;;;;12.44;63.40;103180.56;5062889;28;45512;-64
2021/12/16 05:47:13;;;;;;;;;24.25;23.00;;;;;12.41;63.56;103184.13;5081280;28;45414;-64
2021/12/16 05:49:39;;;;;;;;;20.50;18.00;;;;;12.39;63.39;103188.59;5081268;27;45289;-64
2021/12/16 05:52:04;;;;;;;;;20.00;19.25;;;;;12.36;63.40;103186.84;5081165;28;45426;-64
2021/12/16 05:54:30;;;;;;;;;16.75;16.00;;;;;12.39;63.21;103193.97;5063467;28;45623;-64
2021/12/16 05:56:55;;;;;;;;;23.75;21.75;;;;;12.40;63.64;103185.06;5079210;28;45424;-64
2021/12/16 05:59:21;;;;;;;;;20.50;19.00;;;;;12.41;63.57;103194.84;5080763;28;45578;-64
2021/12/16 06:01:48;;;;;;;;;22.50;18.75;;;;;12.43;63.56;103198.44;5069338;28;45398;-64
2021/12/16 06:04:14;;;;;;;;;23.25;18.75;;;;;12.43;63.26;103203.81;5079396;28;45310;-64
2021/12/16 06:06:39;;;;;;;;;22.75;21.25;;;;;12.46;63.31;103194.84;5077532;27;45519;-64
2021/12/16 06:09:07;;;;;;;;;26.50;23.25;;;;;12.46;63.48;103208.25;5081172;28;45395;-64
2021/12/16 06:11:35;;;;;;;;;26.00;25.00;;;;;12.46;63.55;103198.41;5081547;28;45280;-64
2021/12/16 06:28:07;;;;;;;;;30.75;26.25;;;;;12.48;63.96;103198.41;5080834;28;45804;-64
2021/12/16 06:30:39;;;;;;;;;30.75;29.50;;;;;12.52;63.96;103206.44;5062433;28;45149;-64
2021/12/16 06:33:07;;;;;;;;;32.75;29.75;;;;;12.54;64.29;103210.03;5080256;27;45240;-64
2021/12/16 06:35:33;;;;;;;;;29.00;27.75;;;;;12.54;64.07;103209.13;5077510;28;45522;-64
2021/12/16 06:37:59;;;;;;;;;31.00;30.00;;;;;12.55;63.92;103210.94;5080678;28;46227;-64
2021/12/16 06:40:25;;;;;;;;;33.25;30.25;;;;;12.49;63.85;103197.53;5080796;27;45397;-64
2021/12/16 06:42:53;;;;;;;;;37.25;30.00;;;;;12.53;63.97;103204.66;5080646;28;45318;-64
2021/12/16 06:45:24;;;;;;;;;31.75;30.00;;;;;12.51;63.92;103206.44;5080814;28;45232;-64
2021/12/16 06:47:56;;;;;;;;;29.25;25.50;;;;;12.46;63.70;103202.88;5067671;27;46024;-64
2021/12/16 06:50:38;;;;;;;;;34.75;31.50;;;;;12.50;63.84;103215.41;5079818;28;45875;-64
2021/12/16 06:53:07;;;;;;;;;27.75;25.00;;;;;12.48;63.98;103209.13;5079004;28;45519;-64
2021/12/16 06:55:48;;;;;;;;;31.75;26.50;;;;;12.42;63.89;103202.88;5080496;28;45511;-64
2021/12/16 06:58:22;;;;;;;;;32.00;29.75;;;;;12.49;64.01;103218.97;5080687;28;46008;-64
2021/12/16 07:00:50;;;;;;;;;33.25;29.00;;;;;12.50;63.96;103220.75;5080452;28;45487;-64
2021/12/16 07:03:19;;;;;;;;;29.75;28.50;;;;;12.51;63.90;103220.75;5080906;28;45372;-64
2021/12/16 07:05:48;;;;;;;;;32.00;27.25;;;;;12.52;64.02;103227.00;5080519;28;46134;-64
2021/12/16 07:08:16;;;;;;;;;33.75;30.25;;;;;12.56;63.88;103236.81;5080494;28;47276;-64
2021/12/16 07:10:45;;;;;;;;;28.25;24.75;;;;;12.55;64.04;103230.56;5080393;28;45597;-64
2021/12/16 07:13:17;;;;;;;;;34.00;29.50;;;;;12.56;64.13;103229.69;5079220;28;45320;-64
2021/12/16 07:15:45;;;;;;;;;31.00;28.25;;;;;12.58;64.18;103233.25;5080161;27;45441;-64
2021/12/16 07:18:10;;;;;;;;;24.50;20.75;;;;;12.59;64.16;103234.13;5075260;28;46427;-64
2021/12/16 07:20:37;;;;;;;;;30.00;27.75;;;;;12.61;64.12;103240.38;5076019;28;45394;-64
2021/12/16 07:23:05;;;;;;;;;28.50;28.00;;;;;12.62;64.04;103236.81;5073285;28;45367;-64
2021/12/16 07:25:31;;;;;;;;;28.25;26.50;;;;;12.63;64.02;103235.00;5072640;28;45522;-64
2021/12/16 07:27:56;;;;;;;;;39.50;34.75;;;;;12.61;64.36;103226.97;5079869;28;45364;-64
2021/12/16 07:30:23;;;;;;;;;31.25;31.00;;;;;12.66;64.04;103232.34;5080222;28;45622;-64
2021/12/16 07:32:49;;;;;;;;;27.25;26.00;;;;;12.67;64.18;103228.78;5079994;28;45300;-64
2021/12/16 07:35:18;;;;;;;;;30.75;28.75;;;;;12.68;64.41;103228.78;5079620;28;45331;-64
2021/12/16 07:37:44;;;;;;;;;34.50;29.50;;;;;12.71;64.22;103233.22;5080157;28;45399;-64
2021/12/16 07:40:12;;;;;;;;;29.25;27.50;;;;;12.71;64.23;103233.22;5079849;27;45347;-64
2021/12/16 07:42:59;;;;;;;;;28.25;27.25;;;;;12.74;64.13;103241.25;5080056;28;45242;-64
2021/12/16 07:45:27;;;;;;;;;29.50;25.00;;;;;12.71;64.30;103233.22;5078537;28;45647;-64
2021/12/16 07:47:52;;;;;;;;;29.25;26.50;;;;;12.70;64.24;103235.03;5079769;28;46284;-64
2021/12/16 07:50:18;;;;;;;;;25.00;24.75;;;;;12.72;64.23;103235.91;5079344;27;45315;-64
2021/12/16 07:52:44;;;;;;;;;28.00;25.50;;;;;12.73;64.31;103235.03;5079954;28;45310;-64
2021/12/16 07:55:11;;;;;;;;;24.75;23.25;;;;;12.74;64.09;103241.25;5067336;28;45334;-64
2021/12/16 07:57:38;;;;;;;;;31.25;28.50;;;;;12.76;64.02;103239.47;5078576;28;45331;-64
2021/12/16 08:00:14;;;;;;;;;28.25;26.25;;;;;12.75;64.07;103235.03;5078892;28;45619;-64
2021/12/16 08:02:40;;;;;;;;;33.50;32.00;;;;;12.73;64.20;103234.09;5076074;28;45319;-71
2021/12/16 08:05:08;;;;;;;;;32.00;29.00;;;;;12.75;64.16;103243.06;5069407;28;46080;-72
2021/12/16 08:07:35;;;;;;;;;18.50;18.25;;;;;12.64;63.87;103228.78;5075953;28;48240;-70
2021/12/16 08:10:00;;;;;;;;;30.00;25.75;;;;;12.70;64.20;103243.06;5081383;28;45718;-71
2021/12/16 08:12:26;;;;;;;;;35.00;25.50;;;;;12.70;63.97;103237.69;5080257;28;45394;-71
2021/12/16 08:14:52;;;;;;;;;27.25;27.00;;;;;12.71;64.07;103244.84;5083050;27;45297;-71
2021/12/16 08:17:18;;;;;;;;;27.25;25.25;;;;;12.75;63.93;103260.03;5083235;28;45391;-71
2021/12/16 08:19:45;;;;;;;;;29.25;28.75;;;;;12.78;64.16;103260.03;5082722;27;45452;-71
2021/12/16 08:22:12;;;;;;;;;32.25;25.75;;;;;12.80;64.21;103262.72;5083057;28;45442;-71
2021/12/16 08:24:38;;;;;;;;;27.00;26.50;;;;;12.77;64.07;103260.03;5079368;28;45344;-71
2021/12/16 08:27:04;;;;;;;;;29.00;27.50;;;;;12.64;64.13;103228.78;5081551;27;45502;-71
2021/12/16 08:29:29;;;;;;;;;28.75;25.50;;;;;12.73;64.21;103243.06;5086221;27;45586;-71
2021/12/16 08:31:56;;;;;;;;;26.00;23.75;;;;;12.75;63.84;103249.31;5082515;27;45323;-71
2021/12/16 08:34:22;;;;;;;;;24.25;24.25;;;;;12.82;63.99;103262.72;5082873;27;45580;-72
2021/12/16 08:36:47;;;;;;;;;24.00;23.25;;;;;12.77;63.72;103254.66;5082814;28;46057;-72
2021/12/16 08:39:14;;;;;;;;;32.25;29.00;;;;;12.84;63.81;103266.28;5082473;27;45387;-70
2021/12/16 08:41:46;;;;;;;;;20.25;18.00;;;;;12.76;63.46;103261.81;5082594;28;45378;-71
2021/12/16 08:44:11;;;;;;;;;24.50;23.00;;;;;12.77;63.75;103265.38;5067127;28;45952;-72
2021/12/16 08:46:44;;;;;;;;;30.75;27.25;;;;;12.65;63.60;103246.66;5076172;28;45362;-72
2021/12/16 08:49:09;;;;;;;;;27.50;24.50;;;;;12.73;63.77;103263.59;5070233;27;45483;-71
2021/12/16 08:51:39;;;;;;;;;25.75;24.25;;;;;12.76;63.54;103272.53;5064379;28;45412;-72
2021/12/16 08:54:05;;;;;;;;;19.75;18.50;;;;;12.82;63.37;103279.66;5061486;28;45487;-64
2021/12/16 08:56:31;;;;;;;;;22.00;20.50;;;;;12.72;63.04;103284.13;5079186;27;46008;-64
2021/12/16 08:58:58;;;;;;;;;24.50;23.75;;;;;12.72;63.25;103283.25;5079388;28;45484;-64
2021/12/16 09:01:27;;;;;;;;;20.00;19.50;;;;;12.70;63.64;103283.25;5081419;27;45500;-64
2021/12/16 09:03:55;;;;;;;;;26.50;24.75;;;;;12.74;63.07;103289.50;5082195;28;45168;-64
2021/12/16 09:06:21;;;;;;;;;19.00;18.75;;;;;12.72;63.02;103299.34;5082167;27;45339;-64
2021/12/16 09:08:47;;;;;;;;;23.50;19.75;;;;;12.69;62.96;103299.34;5082209;28;46836;-64
2021/12/16 09:11:19;;;;;;;;;19.25;17.00;;;;;12.70;63.24;103296.66;5081176;28;45760;-64
2021/12/16 09:13:46;;;;;;;;;23.75;20.50;;;;;12.68;62.68;103290.41;5076925;27;46638;-64
2021/12/16 09:16:15;;;;;;;;;18.75;18.75;;;;;12.68;62.76;103300.22;5078752;28;45485;-64
2021/12/16 09:18:43;;;;;;;;;23.50;20.00;;;;;12.65;62.96;103295.78;5079795;27;45671;-64
2021/12/16 09:21:15;;;;;;;;;20.00;19.25;;;;;12.70;62.64;103299.34;5080723;27;45615;-64
2021/12/16 09:23:42;;;;;;;;;21.00;20.00;;;;;12.65;62.51;103298.44;5080898;28;45327;-64
2021/12/16 09:26:08;;;;;;;;;18.75;17.25;;;;;12.51;62.44;103279.72;5074572;28;46058;-64
2021/12/16 09:28:34;;;;;;;;;21.25;19.75;;;;;12.62;62.38;103303.81;5080716;27;45384;-64
2021/12/16 09:30:59;;;;;;;;;22.75;22.00;;;;;12.66;62.83;103312.72;5080537;27;45426;-64
2021/12/16 09:33:26;;;;;;;;;23.25;21.00;;;;;12.65;62.44;103313.66;5080172;27;45453;-64
2021/12/16 09:35:57;;;;;;;;;19.00;17.00;;;;;12.64;62.36;103310.03;5074237;28;45471;-64
2021/12/16 09:38:22;;;;;;;;;23.75;20.75;;;;;12.62;62.51;103311.84;5080023;27;45319;-64
2021/12/16 09:40:53;;;;;;;;;22.00;19.25;;;;;12.57;62.66;103305.59;5080898;28;45517;-64
2021/12/16 09:43:23;;;;;;;;;19.50;18.00;;;;;12.68;62.74;103318.97;5076893;28;45454;-64
2021/12/16 09:45:49;;;;;;;;;19.25;18.25;;;;;12.70;62.47;103327.94;5079966;27;46106;-64
2021/12/16 09:48:14;;;;;;;;;21.00;20.00;;;;;12.70;62.57;103325.25;5080742;28;45471;-64
2021/12/16 09:50:40;;;;;;;;;20.25;18.00;;;;;12.72;62.67;103326.13;5081050;28;45572;-64
2021/12/16 09:53:05;;;;;;;;;19.25;17.25;;;;;12.74;62.35;103325.22;5080588;28;45425;-64
2021/12/16 09:55:33;;;;;;;;;24.75;20.25;;;;;12.72;62.11;103326.13;5080382;27;47105;-64
2021/12/16 09:58:00;;;;;;;;;20.75;20.25;;;;;12.74;62.09;103330.59;5081017;28;45389;-64
2021/12/16 10:00:29;;;;;;;;;22.75;20.75;;;;;12.75;61.95;103329.72;5068014;28;45304;-64
2021/12/16 10:02:56;;;;;;;;;22.50;20.75;;;;;12.76;62.08;103335.94;5080859;27;45280;-64
2021/12/16 10:05:22;;;;;;;;;25.50;22.50;;;;;12.72;61.79;103328.81;5080584;28;47491;-64
2021/12/16 10:07:49;;;;;;;;;20.00;19.75;;;;;12.71;62.02;103338.66;5081004;28;45733;-64
2021/12/16 10:10:24;;;;;;;;;26.75;24.25;;;;;12.68;61.89;103327.94;5081034;28;45383;-64
2021/12/16 10:12:51;;;;;;;;;22.00;18.25;;;;;12.67;61.90;103339.53;5080236;28;45648;-64
2021/12/16 10:18:09;;;;;;;;;21.00;17.75;;;;;12.71;62.13;103335.97;5071649;28;45609;-64
2021/12/16 10:20:39;;;;;;;;;18.75;18.75;;;;;12.76;62.09;103341.31;5080031;27;45351;-64
2021/12/16 10:23:14;;;;;;;;;20.00;18.00;;;;;12.79;62.05;103338.63;5080086;28;45391;-64
2021/12/16 10:25:40;;;;;;;;;23.00;20.25;;;;;12.79;62.19;103330.59;5061840;28;47704;-64
2021/12/16 10:28:16;;;;;;;;;23.00;20.00;;;;;12.84;62.00;103344.00;5079556;28;45557;-64
2021/12/16 10:31:04;;;;;;;;;24.00;18.75;;;;;12.86;62.08;103332.38;5042545;28;45419;-64
2021/12/16 10:33:44;;;;;;;;;19.50;18.25;;;;;12.90;62.17;103335.97;5056002;27;45546;-64
2021/12/16 10:36:32;;;;;;;;;21.75;19.75;;;;;12.93;61.62;103338.63;5080336;27;47113;-64
2021/12/16 10:39:09;;;;;;;;;23.50;22.00;;;;;12.88;61.56;103338.66;5071284;28;45776;-64
2021/12/16 10:41:47;;;;;;;;;20.75;19.50;;;;;12.85;61.81;103337.75;5080527;27;45614;-64
2021/12/16 10:44:20;;;;;;;;;23.75;21.00;;;;;12.87;61.98;103336.84;5075031;28;45529;-65
2021/12/16 10:46:59;;;;;;;;;28.50;25.75;;;;;12.90;61.74;103339.53;5071833;28;46079;-69
2021/12/16 10:49:37;;;;;;;;;24.25;24.00;;;;;12.90;61.78;103338.66;5072182;27;45495;-64
2021/12/16 10:52:19;;;;;;;;;19.25;18.00;;;;;12.86;61.54;103332.38;5080122;28;45465;-64
2021/12/16 10:54:48;;;;;;;;;30.00;27.75;;;;;12.86;61.75;103340.41;5066219;28;45491;-64
2021/12/16 10:57:17;;;;;;;;;24.50;21.50;;;;;12.85;61.90;103340.44;5092378;27;45468;-65
2021/12/16 10:59:45;;;;;;;;;24.25;23.50;;;;;12.87;61.79;103335.97;5084609;27;45390;-63
2021/12/16 11:02:12;;;;;;;;;24.00;24.00;;;;;12.88;61.78;103332.38;5070479;27;45747;-64
2021/12/16 11:04:43;;;;;;;;;26.50;23.75;;;;;12.90;62.11;103333.28;5062445;28;45369;-65
2021/12/16 11:07:34;;;;;;;;;29.25;25.75;;;;;12.94;62.15;103324.34;5080127;28;45402;-64
2021/12/16 11:10:11;;;;;;;;;28.25;24.25;;;;;12.99;61.81;103338.63;5080015;28;45726;-64
2021/12/16 11:12:51;;;;;;;;;29.75;28.50;;;;;12.97;61.69;103335.94;5080117;28;45481;-64
2021/12/16 11:15:39;;;;;;;;;26.75;21.50;;;;;12.96;62.00;103331.50;5080259;28;45512;-64
2021/12/16 11:18:09;;;;;;;;;27.00;23.75;;;;;12.95;61.76;103332.38;5078816;28;46372;-64
2021/12/16 11:20:40;;;;;;;;;26.00;22.00;;;;;12.98;61.82;103344.91;5076863;28;45364;-64
2021/12/16 11:23:13;;;;;;;;;26.50;24.75;;;;;12.96;61.49;103339.53;5077471;28;45358;-64
2021/12/16 11:25:46;;;;;;;;;29.50;27.00;;;;;12.91;61.63;103335.06;5077779;27;45383;-64
2021/12/16 11:28:11;;;;;;;;;28.75;24.75;;;;;12.89;61.83;103343.09;5061307;28;46695;-64
2021/12/16 11:30:43;;;;;;;;;27.25;25.00;;;;;12.88;61.43;103333.28;5079995;28;45419;-64
2021/12/16 11:33:19;;;;;;;;;27.75;24.25;;;;;12.89;61.44;103343.09;5079954;28;45228;-65
2021/12/16 11:35:49;;;;;;;;;29.25;25.75;;;;;12.86;61.60;103332.38;5061945;28;45786;-64
2021/12/16 11:38:31;;;;;;;;;21.00;21.00;;;;;12.87;61.50;103342.22;5079795;28;46047;-65
2021/12/16 11:41:02;;;;;;;;;26.75;25.00;;;;;12.87;61.42;103333.28;5079728;28;45613;-64
2021/12/16 11:43:35;;;;;;;;;23.25;21.50;;;;;12.86;61.36;103332.38;5079863;28;45361;-64
2021/12/16 11:46:01;;;;;;;;;27.25;25.25;;;;;12.77;61.46;103325.22;5079831;28;45516;-64
2021/12/16 11:48:30;;;;;;;;;35.50;27.00;;;;;12.84;61.56;103333.28;5079761;28;45545;-64
2021/12/16 11:51:04;;;;;;;;;31.00;29.50;;;;;12.81;61.71;103325.25;5079523;28;45352;-65
2021/12/16 11:54:01;;;;;;;;;28.75;27.75;;;;;12.89;61.68;103328.81;5079958;28;45642;-64
2021/12/16 11:56:47;;;;;;;;;34.50;32.00;;;;;12.95;61.79;103318.09;5076474;27;45376;-64
2021/12/16 11:59:29;;;;;;;;;34.00;29.75;;;;;12.96;61.96;103320.78;5079258;28;45571;-64
2021/12/16 12:01:55;;;;;;;;;28.75;24.50;;;;;13.01;61.65;103323.41;5079376;28;45305;-64
2021/12/16 12:04:27;;;;;;;;;36.00;30.50;;;;;12.98;61.68;103320.78;5079759;28;45391;-64
2021/12/16 12:06:53;;;;;;;;;28.25;27.25;;;;;12.97;61.44;103322.53;5061943;28;45324;-64
2021/12/16 12:09:18;;;;;;;;;29.50;28.50;;;;;12.94;61.49;103316.28;5079406;28;45245;-64
2021/12/16 12:11:44;;;;;;;;;29.75;29.00;;;;;12.96;61.66;103319.84;5079047;28;45162;-64
2021/12/16 12:14:20;;;;;;;;;29.25;27.75;;;;;12.96;61.39;103320.78;5077806;28;45374;-64
2021/12/16 12:16:49;;;;;;;;;29.75;27.75;;;;;12.96;61.56;103315.41;5079440;28;45337;-65
2021/12/16 12:19:21;;;;;;;;;28.00;25.25;;;;;12.97;61.56;103322.53;5079620;28;45374;-66
2021/12/16 12:22:00;;;;;;;;;33.00;32.00;;;;;12.97;61.30;103313.59;5068761;28;45382;-64
2021/12/16 12:24:39;;;;;;;;;29.25;28.00;;;;;12.96;61.56;103304.69;5075799;28;45341;-64
2021/12/16 12:27:09;;;;;;;;;35.00;32.25;;;;;12.98;61.60;103315.41;5065713;27;45517;-64
2021/12/16 12:29:48;;;;;;;;;34.50;32.00;;;;;12.99;61.46;103303.78;5060706;28;47718;-64
2021/12/16 12:32:25;;;;;;;;;27.75;26.25;;;;;13.01;61.48;103306.44;5079338;28;45220;-65
2021/12/16 12:35:04;;;;;;;;;30.75;24.50;;;;;13.05;61.70;103310.94;5061171;28;45417;-64
2021/12/16 12:37:34;;;;;;;;;27.50;24.25;;;;;13.02;61.29;103302.88;5079247;28;45238;-64
2021/12/16 12:40:07;;;;;;;;;31.50;30.00;;;;;12.93;61.43;103293.03;5065875;28;45617;-64
2021/12/16 12:42:33;;;;;;;;;30.50;26.75;;;;;12.99;61.39;103309.13;5079155;28;45212;-65
2021/12/16 12:44:59;;;;;;;;;33.50;30.25;;;;;13.01;61.51;103304.66;5079411;28;45360;-64
2021/12/16 12:47:33;;;;;;;;;30.50;28.00;;;;;13.02;61.85;103302.88;5078895;28;45264;-65
2021/12/16 12:50:15;;;;;;;;;29.75;29.75;;;;;13.02;61.38;103286.78;5078413;28;46500;-64
2021/12/16 12:52:45;;;;;;;;;28.50;26.75;;;;;13.07;61.54;103287.69;5065904;28;45876;-64
2021/12/16 12:55:16;;;;;;;;;27.75;25.25;;;;;13.07;61.36;103285.88;5072297;28;45454;-65
2021/12/16 12:57:43;;;;;;;;;24.75;23.50;;;;;13.12;61.22;103286.75;5077720;28;45501;-65
2021/12/16 13:00:43;;;;;;;;;24.25;23.25;;;;;13.16;61.23;103287.63;5076396;28;47062;-65
2021/12/16 13:03:37;;;;;;;;;24.00;23.25;;;;;13.17;61.14;103278.72;5071256;28;45549;-65
2021/12/16 13:06:09;;;;;;;;;32.00;29.25;;;;;13.18;60.87;103284.94;5065772;28;45463;-64
2021/12/16 13:08:37;;;;;;;;;26.25;24.25;;;;;13.15;60.93;103283.19;5077590;28;45595;-65
2021/12/16 13:11:08;;;;;;;;;24.50;22.75;;;;;13.13;61.06;103288.56;5078448;28;45601;-65
2021/12/16 13:13:42;;;;;;;;;26.75;26.25;;;;;13.19;60.84;103292.13;5065904;28;45965;-65
2021/12/16 13:34:49;;;;;;;;;25.25;20.25;;;;;13.20;60.23;103262.63;5077891;28;45921;-65
2021/12/16 13:37:34;;;;;;;;;24.00;22.50;;;;;13.20;60.27;103267.97;5078002;28;45759;-65
2021/12/16 13:40:08;;;;;;;;;24.75;24.75;;;;;13.20;60.20;103267.06;5054657;28;45741;-65
2021/12/16 13:42:48;;;;;;;;;28.75;25.50;;;;;13.18;60.30;103258.13;5077746;28;47749;-65
2021/12/16 13:45:27;;;;;;;;;24.50;24.50;;;;;13.14;60.60;103257.25;5077821;28;45522;-65
2021/12/16 13:48:07;;;;;;;;;28.00;21.00;;;;;13.20;60.41;103259.94;5077975;27;45830;-65
2021/12/16 14:07:57;;;;;;;;;23.00;21.50;;;;;13.18;59.87;103259.06;5068627;28;45594;-65
2021/12/16 14:10:50;;;;;;;;;15.25;11.00;;;;;13.25;59.58;103268.84;5079686;27;45490;-66
2021/12/16 14:25:00;;;;;;;;;28.75;20.50;;;;;13.24;59.87;103271.53;5073355;28;45459;-65
2021/12/16 14:36:53;;;;;;;;;27.25;21.50;;;;;13.33;59.42;103260.78;5081243;28;45802;-65
2021/12/16 14:39:07;;;;;;;;;23.25;19.50;;;;;13.30;59.59;103259.00;5070874;28;45359;-65
2021/12/16 14:47:14;;;;;;;;;27.25;25.75;;;;;13.40;59.73;103267.94;5044472;27;45621;-65
2021/12/16 14:49:48;;;;;;;;;25.50;23.50;;;;;13.40;59.36;103277.75;5078295;27;46377;-65
2021/12/16 14:52:23;;;;;;;;;29.00;24.25;;;;;13.34;59.26;103273.31;5076152;28;45671;-65